Time;durP1;ratioP1;P1;durP2;ratioP2;P2;SDS_P1;SDS_P2;PMS_P1;PMS_P2;Temp;Humidity;BMP_temperature;BMP_pressure;BME280_temperature;BME280_humidity;BME280_pressure;Samples;Min_cycle;Max_cycle;Signal;HPM_P1;HPM_P2
2023/01/23 00:00:54;;;;;;;0.10;0.10;;;2.20;99.90;;;;;;5064459;28;20763;-81
2023/01/23 00:03:20;;;;;;;0.10;0.10;;;2.20;99.90;;;;;;5061862;28;21499;-81
2023/01/23 00:05:54;;;;;;;0.10;0.10;;;2.20;99.90;;;;;;5063778;28;20715;-82
2023/01/23 00:08:20;;;;;;;0.00;0.00;;;2.20;99.90;;;;;;5062713;28;20845;-81
2023/01/23 00:10:46;;;;;;;0.10;0.10;;;2.20;99.90;;;;;;5064024;28;20197;-81
2023/01/23 00:13:11;;;;;;;0.10;0.10;;;2.20;99.90;;;;;;5063826;28;20261;-80
2023/01/23 00:15:38;;;;;;;0.10;0.10;;;2.20;99.90;;;;;;5064387;28;20439;-81
2023/01/23 00:18:04;;;;;;;0.10;0.10;;;2.20;99.90;;;;;;5062574;28;20201;-81
2023/01/23 00:20:29;;;;;;;0.10;0.10;;;2.20;99.90;;;;;;5064717;28;20183;-81
2023/01/23 00:22:55;;;;;;;0.10;0.10;;;2.20;99.90;;;;;;5062935;28;20192;-81
2023/01/23 00:25:20;;;;;;;0.10;0.10;;;2.20;99.90;;;;;;5062874;28;20189;-81
2023/01/23 00:27:46;;;;;;;0.10;0.10;;;2.30;99.90;;;;;;5062969;28;20717;-81
2023/01/23 00:30:12;;;;;;;0.10;0.10;;;2.30;99.90;;;;;;5063755;28;20603;-81
2023/01/23 00:32:38;;;;;;;0.10;0.10;;;2.30;99.90;;;;;;5064177;28;20219;-81
2023/01/23 00:35:04;;;;;;;0.10;0.10;;;2.30;99.90;;;;;;5063433;28;20190;-81
2023/01/23 00:37:29;;;;;;;0.00;0.00;;;2.30;99.90;;;;;;5062162;28;20222;-82
2023/01/23 00:39:55;;;;;;;0.10;0.10;;;2.30;99.90;;;;;;5064002;28;20226;-82
2023/01/23 00:42:20;;;;;;;0.10;0.10;;;2.30;99.90;;;;;;5063435;28;20200;-81
2023/01/23 00:44:46;;;;;;;0.03;0.03;;;2.20;99.90;;;;;;5062044;28;20316;-82
2023/01/23 00:47:11;;;;;;;0.10;0.10;;;2.20;99.90;;;;;;5059913;28;20189;-81
2023/01/23 00:49:37;;;;;;;0.10;0.10;;;2.20;99.90;;;;;;5059488;28;20202;-81
2023/01/23 00:52:03;;;;;;;0.10;0.10;;;2.30;99.90;;;;;;5063531;28;20240;-82
2023/01/23 00:54:28;;;;;;;0.10;0.10;;;2.20;99.90;;;;;;5061736;28;20322;-80
2023/01/23 00:56:54;;;;;;;0.10;0.10;;;2.20;99.90;;;;;;5060416;28;20181;-82
2023/01/23 00:59:19;;;;;;;0.00;0.00;;;2.20;99.90;;;;;;5061414;28;20222;-80
2023/01/23 01:01:45;;;;;;;4.60;4.33;;;2.20;99.90;;;;;;5061897;28;20679;-80
2023/01/23 01:04:10;;;;;;;0.10;0.10;;;2.20;99.90;;;;;;5063853;28;20652;-81
2023/01/23 01:06:36;;;;;;;0.10;0.10;;;2.30;99.90;;;;;;5061647;28;20863;-81
2023/01/23 01:09:03;;;;;;;0.10;0.10;;;2.20;99.90;;;;;;5061611;28;20748;-81
2023/01/23 01:11:28;;;;;;;0.10;0.10;;;2.20;99.90;;;;;;5063258;28;20601;-80
2023/01/23 01:13:54;;;;;;;0.10;0.10;;;2.20;99.90;;;;;;5062490;28;20218;-81
2023/01/23 01:16:19;;;;;;;0.10;0.10;;;2.20;99.90;;;;;;5062518;28;20188;-81
2023/01/23 01:18:45;;;;;;;0.10;0.10;;;2.20;99.90;;;;;;5059803;28;20201;-82
2023/01/23 01:21:13;;;;;;;0.10;0.10;;;2.20;99.90;;;;;;5063011;28;20237;-80
2023/01/23 01:23:39;;;;;;;0.10;0.10;;;2.20;99.90;;;;;;5061712;28;20181;-79
2023/01/23 01:26:06;;;;;;;0.10;0.10;;;2.20;99.90;;;;;;5061975;28;20984;-80
2023/01/23 01:28:33;;;;;;;0.10;0.10;;;2.20;99.90;;;;;;5062717;28;20267;-81
2023/01/23 01:31:07;;;;;;;14.43;7.53;;;2.20;99.90;;;;;;5059248;28;20185;-81
2023/01/23 01:33:33;;;;;;;0.10;0.10;;;2.20;99.90;;;;;;5061972;28;21093;-82
2023/01/23 01:36:00;;;;;;;0.10;0.10;;;2.20;99.90;;;;;;5061076;28;20216;-80
2023/01/23 01:38:25;;;;;;;0.10;0.10;;;2.20;99.90;;;;;;5062220;28;20684;-81
2023/01/23 01:40:51;;;;;;;0.10;0.10;;;2.20;99.90;;;;;;5058976;28;20185;-82
2023/01/23 01:43:20;;;;;;;0.10;0.10;;;2.20;99.90;;;;;;5060686;28;20564;-82
2023/01/23 01:46:04;;;;;;;0.10;0.10;;;2.30;99.90;;;;;;5057955;28;20548;-82
2023/01/23 01:48:48;;;;;;;0.10;0.10;;;2.20;99.90;;;;;;5060589;28;20275;-81
2023/01/23 01:51:22;;;;;;;0.10;0.10;;;2.20;99.90;;;;;;5058536;28;20274;-80
2023/01/23 01:53:57;;;;;;;0.10;0.10;;;2.30;99.90;;;;;;5056856;28;20206;-82
2023/01/23 01:56:25;;;;;;;0.10;0.10;;;2.30;99.90;;;;;;5060233;28;20648;-81
2023/01/23 01:58:52;;;;;;;0.10;0.10;;;2.20;99.90;;;;;;5058943;28;20213;-81
2023/01/23 02:01:18;;;;;;;0.10;0.10;;;2.20;99.90;;;;;;5068407;28;20672;-81
2023/01/23 02:03:44;;;;;;;0.23;0.23;;;2.20;99.90;;;;;;5060616;28;20188;-80
2023/01/23 02:06:10;;;;;;;0.10;0.10;;;2.20;99.90;;;;;;5059724;28;20302;-81
2023/01/23 02:08:58;;;;;;;0.10;0.10;;;2.20;99.90;;;;;;5057308;28;20389;-82
2023/01/23 02:11:23;;;;;;;0.30;0.30;;;2.20;99.90;;;;;;5055667;28;20716;-82
2023/01/23 02:13:50;;;;;;;0.50;0.50;;;2.20;99.90;;;;;;5058592;28;20262;-81
2023/01/23 02:16:28;;;;;;;0.10;0.10;;;2.20;99.90;;;;;;5057905;28;20198;-81
2023/01/23 02:18:58;;;;;;;0.10;0.10;;;2.20;99.90;;;;;;5058491;28;20203;-82
2023/01/23 02:21:24;;;;;;;0.10;0.10;;;2.30;99.90;;;;;;5058341;28;20199;-81
2023/01/23 02:24:02;;;;;;;0.10;0.10;;;2.30;99.90;;;;;;5058834;28;20191;-81
2023/01/23 02:26:36;;;;;;;0.10;0.10;;;2.30;99.90;;;;;;5059109;28;20186;-81
2023/01/23 02:29:02;;;;;;;0.10;0.10;;;2.30;99.90;;;;;;5058248;28;20209;-82
2023/01/23 02:31:28;;;;;;;0.10;0.10;;;2.30;99.90;;;;;;5060928;28;20199;-80
2023/01/23 02:33:55;;;;;;;0.10;0.10;;;2.30;99.90;;;;;;5060076;28;20206;-81
2023/01/23 02:36:25;;;;;;;0.10;0.10;;;2.20;99.90;;;;;;5057661;28;20191;-81
2023/01/23 02:39:02;;;;;;;0.10;0.10;;;2.20;99.90;;;;;;5058475;28;22352;-81
2023/01/23 02:41:31;;;;;;;0.10;0.10;;;2.20;99.90;;;;;;5058958;28;20192;-81
2023/01/23 02:44:01;;;;;;;0.40;0.40;;;2.20;99.90;;;;;;5058400;28;20185;-81
2023/01/23 02:46:26;;;;;;;0.10;0.10;;;2.10;99.90;;;;;;5061754;28;20190;-81
2023/01/23 02:48:52;;;;;;;0.10;0.10;;;2.10;99.90;;;;;;5058129;28;20208;-81
2023/01/23 02:51:19;;;;;;;0.10;0.10;;;2.10;99.90;;;;;;5062569;28;20200;-81
2023/01/23 02:53:45;;;;;;;0.10;0.10;;;2.00;99.90;;;;;;5064976;28;20623;-80
2023/01/23 02:56:11;;;;;;;0.10;0.10;;;2.00;99.90;;;;;;5062828;28;20656;-81
2023/01/23 03:01:21;;;;;;;0.10;0.10;;;1.90;99.90;;;;;;5063314;28;20182;-81
2023/01/23 03:03:50;;;;;;;0.10;0.10;;;1.90;99.90;;;;;;5064564;28;20190;-81
2023/01/23 03:06:15;;;;;;;0.10;0.10;;;1.90;99.90;;;;;;5063824;28;20187;-81
2023/01/23 03:08:46;;;;;;;0.10;0.10;;;1.80;99.90;;;;;;5066367;28;20215;-80
2023/01/23 03:11:14;;;;;;;0.10;0.10;;;1.80;99.90;;;;;;5064081;28;20641;-81
2023/01/23 03:13:39;;;;;;;0.10;0.10;;;1.80;99.90;;;;;;5063156;28;20233;-81
2023/01/23 03:16:05;;;;;;;0.10;0.10;;;1.80;99.90;;;;;;5063554;28;20179;-80
2023/01/23 03:18:32;;;;;;;0.10;0.10;;;1.80;99.90;;;;;;5065535;28;20201;-80
2023/01/23 03:21:02;;;;;;;0.10;0.10;;;1.70;99.90;;;;;;5065008;28;21192;-81
2023/01/23 03:23:28;;;;;;;0.10;0.10;;;1.70;99.90;;;;;;5066207;28;20198;-81
2023/01/23 03:25:57;;;;;;;0.10;0.10;;;1.60;99.90;;;;;;5063536;28;20553;-81
2023/01/23 03:31:07;;;;;;;0.47;0.47;;;1.60;99.90;;;;;;5065962;28;20229;-81
2023/01/23 03:33:32;;;;;;;0.10;0.10;;;1.50;99.90;;;;;;5059675;28;20615;-80
2023/01/23 03:35:58;;;;;;;0.10;0.10;;;1.50;99.90;;;;;;5061697;28;20179;-81
2023/01/23 03:38:23;;;;;;;0.00;0.00;;;1.50;99.90;;;;;;5061951;28;20283;-80
2023/01/23 03:43:34;;;;;;;0.10;0.10;;;1.50;99.90;;;;;;5063435;28;20229;-81
2023/01/23 03:45:59;;;;;;;0.10;0.10;;;1.50;99.90;;;;;;5061410;28;20308;-81
2023/01/23 03:48:25;;;;;;;0.10;0.10;;;1.50;99.90;;;;;;5062635;28;20210;-80
2023/01/23 03:50:51;;;;;;;0.10;0.10;;;1.60;99.90;;;;;;5060466;28;20466;-81
2023/01/23 03:53:16;;;;;;;0.10;0.10;;;1.70;99.90;;;;;;5062054;28;20216;-82
2023/01/23 03:55:44;;;;;;;0.00;0.00;;;1.70;99.90;;;;;;5061372;28;20671;-81
2023/01/23 03:58:10;;;;;;;0.10;0.10;;;1.70;99.90;;;;;;5058840;28;20216;-79
2023/01/23 04:00:35;;;;;;;0.10;0.10;;;1.70;99.90;;;;;;5058424;28;20187;-82
2023/01/23 04:03:01;;;;;;;0.10;0.10;;;1.70;99.90;;;;;;5062027;28;20191;-81
2023/01/23 04:05:26;;;;;;;0.10;0.10;;;1.70;99.90;;;;;;5063267;28;20202;-81
2023/01/23 04:07:52;;;;;;;0.10;0.10;;;1.70;99.90;;;;;;5060123;28;20207;-81
2023/01/23 04:10:17;;;;;;;0.10;0.10;;;1.80;99.90;;;;;;5061059;28;20194;-80
2023/01/23 04:12:43;;;;;;;0.10;0.10;;;1.70;99.90;;;;;;5061716;28;20677;-80
2023/01/23 04:15:09;;;;;;;0.10;0.10;;;1.70;99.90;;;;;;5061517;28;20191;-81
2023/01/23 04:17:35;;;;;;;0.10;0.10;;;1.70;99.90;;;;;;5060238;28;20207;-80
2023/01/23 04:20:01;;;;;;;0.10;0.10;;;1.70;99.90;;;;;;5060945;28;20184;-82
2023/01/23 04:22:27;;;;;;;0.10;0.10;;;1.70;99.90;;;;;;5060822;28;20668;-81
2023/01/23 04:24:52;;;;;;;0.10;0.10;;;1.80;99.90;;;;;;5059634;28;20565;-81
2023/01/23 04:27:18;;;;;;;0.10;0.10;;;1.80;99.90;;;;;;5061149;28;20194;-80
2023/01/23 04:29:43;;;;;;;0.10;0.10;;;1.80;99.90;;;;;;5061408;28;20239;-80
2023/01/23 04:32:09;;;;;;;0.00;0.00;;;1.80;99.90;;;;;;5061275;28;20219;-80
2023/01/23 04:34:34;;;;;;;0.10;0.10;;;1.80;99.90;;;;;;5063338;28;20182;-80
2023/01/23 04:37:00;;;;;;;0.00;0.00;;;1.80;99.90;;;;;;5058215;28;20181;-80
2023/01/23 04:39:25;;;;;;;0.10;0.10;;;1.90;99.90;;;;;;5061898;28;20298;-80
2023/01/23 04:41:51;;;;;;;0.10;0.10;;;1.80;99.90;;;;;;5060560;28;20203;-80
2023/01/23 04:44:19;;;;;;;0.10;0.10;;;1.90;99.90;;;;;;5061879;28;20186;-82
2023/01/23 04:46:46;;;;;;;0.43;0.43;;;1.90;99.90;;;;;;5059649;28;20224;-81
2023/01/23 04:49:11;;;;;;;0.10;0.10;;;1.90;99.90;;;;;;5059864;28;20208;-81
2023/01/23 04:51:37;;;;;;;0.10;0.10;;;1.90;99.90;;;;;;5060450;28;20195;-80
2023/01/23 04:54:03;;;;;;;0.10;0.10;;;1.90;99.90;;;;;;5061021;28;20201;-81
2023/01/23 04:56:28;;;;;;;0.10;0.10;;;1.90;99.90;;;;;;5059242;28;20195;-81
2023/01/23 04:58:54;;;;;;;0.10;0.10;;;1.90;99.90;;;;;;5061016;28;20235;-80
2023/01/23 05:01:22;;;;;;;0.10;0.10;;;1.90;99.90;;;;;;5063589;28;20261;-80
2023/01/23 05:03:51;;;;;;;0.10;0.10;;;1.90;99.90;;;;;;5065748;28;20200;-80
2023/01/23 05:06:17;;;;;;;0.10;0.10;;;1.90;99.90;;;;;;5062827;28;20271;-81
2023/01/23 05:08:43;;;;;;;0.10;0.10;;;1.90;99.90;;;;;;5069543;28;20290;-81
2023/01/23 05:11:09;;;;;;;0.10;0.10;;;1.90;99.90;;;;;;5062545;28;20654;-81
2023/01/23 05:13:35;;;;;;;0.10;0.10;;;1.90;99.90;;;;;;5061718;28;20204;-81
2023/01/23 05:16:00;;;;;;;0.10;0.10;;;1.90;99.90;;;;;;5064196;28;20190;-80
2023/01/23 05:18:26;;;;;;;0.10;0.10;;;2.00;99.90;;;;;;5063209;28;20550;-81
2023/01/23 05:20:51;;;;;;;0.10;0.10;;;2.00;99.90;;;;;;5061973;28;20227;-81
2023/01/23 05:23:17;;;;;;;0.10;0.10;;;2.00;99.90;;;;;;5063888;28;20190;-81
2023/01/23 05:25:44;;;;;;;0.10;0.10;;;2.00;99.90;;;;;;5060929;28;20569;-80
2023/01/23 05:28:09;;;;;;;0.00;0.00;;;2.00;99.90;;;;;;5062124;28;20209;-80
2023/01/23 05:30:35;;;;;;;0.10;0.10;;;2.00;99.90;;;;;;5060774;28;20210;-80
2023/01/23 05:33:01;;;;;;;0.10;0.10;;;2.10;99.90;;;;;;5060261;28;20702;-81
2023/01/23 05:35:26;;;;;;;0.10;0.10;;;2.10;99.90;;;;;;5059551;28;20236;-80
2023/01/23 05:37:52;;;;;;;0.10;0.10;;;2.10;99.90;;;;;;5059529;28;20285;-80
2023/01/23 05:40:19;;;;;;;0.10;0.10;;;2.10;99.90;;;;;;5058981;28;20196;-80
2023/01/23 05:42:47;;;;;;;0.10;0.10;;;2.10;99.90;;;;;;5060072;28;20187;-81
2023/01/23 05:45:13;;;;;;;0.10;0.10;;;2.10;99.90;;;;;;5060371;28;20590;-80
2023/01/23 05:47:39;;;;;;;0.10;0.10;;;2.10;99.90;;;;;;5062730;28;20232;-81
2023/01/23 05:50:06;;;;;;;0.10;0.10;;;2.10;99.90;;;;;;5062746;28;20214;-83
2023/01/23 05:52:33;;;;;;;0.10;0.10;;;2.10;99.90;;;;;;5062547;28;20204;-81
2023/01/23 05:54:58;;;;;;;0.17;0.17;;;2.10;99.90;;;;;;5060233;28;22167;-83
2023/01/23 05:57:24;;;;;;;0.10;0.10;;;2.20;99.90;;;;;;5062074;28;20184;-82
2023/01/23 05:59:49;;;;;;;0.10;0.10;;;2.20;99.90;;;;;;5058264;28;20249;-80
2023/01/23 06:02:15;;;;;;;0.10;0.10;;;2.20;99.90;;;;;;5062502;28;20191;-82
2023/01/23 06:04:41;;;;;;;0.10;0.10;;;2.20;99.90;;;;;;5059806;28;20188;-80
2023/01/23 06:07:12;;;;;;;0.10;0.10;;;2.20;99.90;;;;;;5059910;28;20604;-82
2023/01/23 06:09:38;;;;;;;0.10;0.10;;;2.30;99.90;;;;;;5057883;28;20195;-81
2023/01/23 06:12:03;;;;;;;0.10;0.10;;;2.30;99.90;;;;;;5059932;28;20195;-82
2023/01/23 06:14:29;;;;;;;0.10;0.10;;;2.30;99.90;;;;;;5061244;28;20184;-82
2023/01/23 06:16:54;;;;;;;0.10;0.10;;;2.30;99.90;;;;;;5060625;28;20298;-81
2023/01/23 06:19:20;;;;;;;0.10;0.10;;;2.30;99.90;;;;;;5059168;28;20208;-81
2023/01/23 06:21:45;;;;;;;0.10;0.10;;;2.30;99.90;;;;;;5060869;28;20299;-85
2023/01/23 06:24:11;;;;;;;0.10;0.10;;;2.30;99.90;;;;;;5057828;28;20193;-83
2023/01/23 06:26:36;;;;;;;0.10;0.10;;;2.30;99.90;;;;;;5057322;28;20208;-82
2023/01/23 06:29:02;;;;;;;0.10;0.10;;;2.40;99.90;;;;;;5057582;28;20212;-81
2023/01/23 06:31:31;;;;;;;0.10;0.10;;;2.40;99.90;;;;;;5060134;28;20203;-81
2023/01/23 06:33:56;;;;;;;0.10;0.10;;;2.30;99.90;;;;;;5062198;28;20557;-81
2023/01/23 06:36:22;;;;;;;0.10;0.10;;;2.40;99.90;;;;;;5061601;28;20197;-81
2023/01/23 06:38:48;;;;;;;0.10;0.10;;;2.40;99.90;;;;;;5059521;28;20216;-82
2023/01/23 06:41:14;;;;;;;0.10;0.10;;;2.30;99.90;;;;;;5057713;28;20195;-81
2023/01/23 06:43:39;;;;;;;0.10;0.10;;;2.40;99.90;;;;;;5055905;28;20251;-81
2023/01/23 06:46:08;;;;;;;0.10;0.10;;;2.40;99.90;;;;;;5059002;28;21321;-82
2023/01/23 06:48:34;;;;;;;0.10;0.10;;;2.40;99.90;;;;;;5060409;28;20212;-81
2023/01/23 06:51:00;;;;;;;0.10;0.10;;;2.50;99.90;;;;;;5057838;28;20778;-82
2023/01/23 06:53:26;;;;;;;0.10;0.10;;;2.40;99.90;;;;;;5061655;28;20211;-85
2023/01/23 06:55:52;;;;;;;0.10;0.10;;;2.40;99.90;;;;;;5061999;28;20573;-85
2023/01/23 06:58:17;;;;;;;0.10;0.10;;;2.40;99.90;;;;;;5061462;28;20730;-84
2023/01/23 07:00:43;;;;;;;0.10;0.10;;;2.40;99.90;;;;;;5056463;28;20192;-86
2023/01/23 07:03:13;;;;;;;0.10;0.10;;;2.40;99.90;;;;;;5062903;28;20195;-85
2023/01/23 07:05:41;;;;;;;0.10;0.10;;;2.40;99.90;;;;;;5059941;28;20197;-84
2023/01/23 07:08:07;;;;;;;0.07;0.07;;;2.40;99.90;;;;;;5062552;28;20265;-85
2023/01/23 07:10:36;;;;;;;0.10;0.10;;;2.40;99.90;;;;;;5062915;28;20192;-84
2023/01/23 07:13:03;;;;;;;0.20;0.20;;;2.30;99.90;;;;;;5066367;28;20574;-84
2023/01/23 07:15:28;;;;;;;0.10;0.10;;;2.30;99.90;;;;;;5056480;28;20185;-84
2023/01/23 07:17:54;;;;;;;0.10;0.10;;;2.40;99.90;;;;;;5053825;28;20203;-85
2023/01/23 07:20:19;;;;;;;0.10;0.10;;;2.30;99.90;;;;;;5056594;28;20194;-86
2023/01/23 07:22:45;;;;;;;0.10;0.10;;;2.30;99.90;;;;;;5055425;28;20742;-84
2023/01/23 07:25:10;;;;;;;0.10;0.10;;;2.30;99.90;;;;;;5066979;28;20643;-86
2023/01/23 07:27:36;;;;;;;0.10;0.10;;;2.30;99.90;;;;;;5048937;28;20228;-82
2023/01/23 07:30:01;;;;;;;0.10;0.10;;;2.30;99.90;;;;;;5045917;28;20256;-82
2023/01/23 07:32:27;;;;;;;0.10;0.10;;;2.40;99.90;;;;;;5055283;28;20218;-81
2023/01/23 07:34:52;;;;;;;0.10;0.10;;;2.40;99.90;;;;;;5055798;28;20189;-83
2023/01/23 07:37:18;;;;;;;0.10;0.10;;;2.40;99.90;;;;;;5056692;28;20186;-82
2023/01/23 07:39:44;;;;;;;0.10;0.10;;;2.40;99.90;;;;;;5057284;28;20684;-80
2023/01/23 07:42:10;;;;;;;0.00;0.00;;;2.40;99.90;;;;;;5060267;28;20257;-81
2023/01/23 07:44:35;;;;;;;0.10;0.10;;;2.40;99.90;;;;;;5059586;28;20294;-81
2023/01/23 07:47:01;;;;;;;0.10;0.10;;;2.40;99.90;;;;;;5058765;28;20188;-82
2023/01/23 07:49:26;;;;;;;0.10;0.10;;;2.40;99.90;;;;;;5059495;28;20281;-81
2023/01/23 07:51:52;;;;;;;0.10;0.10;;;2.50;99.90;;;;;;5052681;28;20196;-82
2023/01/23 07:54:18;;;;;;;0.20;0.20;;;2.40;99.90;;;;;;5056994;28;20221;-81
2023/01/23 07:56:43;;;;;;;0.10;0.10;;;2.40;99.90;;;;;;5059539;28;20599;-81
2023/01/23 07:59:11;;;;;;;0.00;0.00;;;2.50;99.90;;;;;;5060916;28;20221;-81
2023/01/23 08:01:37;;;;;;;0.10;0.10;;;2.50;99.90;;;;;;5047823;28;20259;-81
2023/01/23 08:04:02;;;;;;;0.10;0.10;;;2.50;99.90;;;;;;5047167;28;20696;-81
2023/01/23 08:06:28;;;;;;;0.10;0.10;;;2.60;99.90;;;;;;5048130;28;20198;-81
2023/01/23 08:08:53;;;;;;;0.10;0.10;;;2.60;99.90;;;;;;5057412;28;20209;-82
2023/01/23 08:11:19;;;;;;;0.10;0.10;;;2.60;99.90;;;;;;5062962;28;20228;-81
2023/01/23 08:13:48;;;;;;;0.10;0.10;;;2.60;99.90;;;;;;5061624;28;20217;-81
2023/01/23 08:16:20;;;;;;;0.10;0.10;;;2.60;99.90;;;;;;5061904;28;20187;-81
2023/01/23 08:18:46;;;;;;;0.10;0.10;;;2.60;99.90;;;;;;5058722;28;20213;-83
2023/01/23 08:21:12;;;;;;;0.10;0.10;;;2.70;99.90;;;;;;5058887;28;20183;-82
2023/01/23 08:23:39;;;;;;;0.00;0.00;;;2.70;99.90;;;;;;5059535;28;20193;-80
2023/01/23 08:26:07;;;;;;;0.10;0.10;;;2.70;99.90;;;;;;5057703;28;20219;-81
2023/01/23 08:28:33;;;;;;;0.10;0.10;;;2.80;99.90;;;;;;5057892;28;20207;-82
2023/01/23 08:31:05;;;;;;;0.10;0.10;;;2.80;99.90;;;;;;5059471;28;20206;-82
2023/01/23 08:33:32;;;;;;;0.10;0.10;;;2.80;99.90;;;;;;5059104;28;20201;-81
2023/01/23 08:35:58;;;;;;;0.67;0.67;;;2.70;99.90;;;;;;5056825;28;20213;-83
2023/01/23 08:38:24;;;;;;;0.10;0.10;;;2.70;99.90;;;;;;5064948;28;20709;-82
2023/01/23 08:40:51;;;;;;;0.10;0.10;;;2.70;99.90;;;;;;5063207;28;20955;-81
2023/01/23 08:43:17;;;;;;;0.10;0.10;;;2.70;99.90;;;;;;5065032;28;20535;-82
2023/01/23 08:45:48;;;;;;;0.10;0.10;;;2.80;99.90;;;;;;5065428;28;20196;-82
2023/01/23 08:48:14;;;;;;;0.10;0.10;;;2.80;99.90;;;;;;5066953;28;20716;-82
2023/01/23 08:50:40;;;;;;;0.10;0.10;;;2.70;99.90;;;;;;5063916;28;20187;-82
2023/01/23 08:53:05;;;;;;;0.10;0.10;;;2.80;99.90;;;;;;5062374;28;20285;-82
2023/01/23 08:55:32;;;;;;;0.10;0.10;;;2.80;99.90;;;;;;5062946;28;20190;-82
2023/01/23 08:57:58;;;;;;;0.10;0.10;;;2.80;99.90;;;;;;5064383;28;20202;-82
2023/01/23 09:00:24;;;;;;;0.10;0.10;;;2.90;99.90;;;;;;5065064;28;20223;-80
2023/01/23 09:02:50;;;;;;;0.10;0.10;;;2.90;99.90;;;;;;5064321;28;22044;-81
2023/01/23 09:05:16;;;;;;;0.10;0.10;;;2.90;99.90;;;;;;5065778;28;20204;-83
2023/01/23 09:07:42;;;;;;;0.10;0.10;;;2.90;99.90;;;;;;5064180;28;20704;-82
2023/01/23 09:10:08;;;;;;;0.10;0.10;;;3.00;99.90;;;;;;5062271;28;20257;-82
2023/01/23 09:12:34;;;;;;;0.10;0.10;;;3.00;99.90;;;;;;5062224;28;20253;-82
2023/01/23 09:14:59;;;;;;;0.10;0.10;;;3.10;99.90;;;;;;5063062;28;20188;-83
2023/01/23 09:17:25;;;;;;;0.10;0.10;;;3.10;99.90;;;;;;5062456;28;20191;-83
2023/01/23 09:19:52;;;;;;;0.10;0.10;;;3.10;99.90;;;;;;5065221;28;20253;-82
2023/01/23 09:22:18;;;;;;;0.00;0.00;;;2.90;99.90;;;;;;5063107;28;20285;-83
2023/01/23 09:24:44;;;;;;;0.10;0.10;;;2.90;99.90;;;;;;5063133;28;20206;-82
2023/01/23 09:27:10;;;;;;;0.10;0.10;;;3.00;99.90;;;;;;5062757;28;20216;-82
2023/01/23 09:29:35;;;;;;;0.10;0.10;;;2.90;99.90;;;;;;5063742;28;20192;-82
2023/01/23 09:32:01;;;;;;;0.10;0.10;;;2.90;99.90;;;;;;5062387;28;20204;-82
2023/01/23 09:34:28;;;;;;;0.00;0.00;;;2.80;99.90;;;;;;5062533;28;20215;-83
2023/01/23 09:36:53;;;;;;;0.10;0.10;;;2.80;99.90;;;;;;5063377;28;20178;-81
2023/01/23 09:39:19;;;;;;;0.10;0.10;;;2.80;99.90;;;;;;5064817;28;20272;-83
2023/01/23 09:41:47;;;;;;;0.10;0.10;;;2.80;99.90;;;;;;5062377;28;20183;-83
2023/01/23 09:44:39;;;;;;;0.10;0.10;;;2.80;99.90;;;;;;5062474;28;20181;-83
2023/01/23 09:47:23;;;;;;;0.10;0.10;;;2.80;99.90;;;;;;5064069;28;20207;-82
2023/01/23 09:50:27;;;;;;;0.10;0.10;;;2.70;99.90;;;;;;5063424;28;20172;-83
2023/01/23 09:53:00;;;;;;;0.00;0.00;;;2.70;99.90;;;;;;5060929;28;20205;-83
2023/01/23 09:55:39;;;;;;;0.10;0.10;;;2.70;99.90;;;;;;5060005;28;20184;-83
2023/01/23 09:58:10;;;;;;;0.10;0.10;;;2.80;99.90;;;;;;5059461;28;20204;-82
2023/01/23 10:00:36;;;;;;;0.10;0.10;;;2.80;99.90;;;;;;5063351;28;20231;-82
2023/01/23 10:03:09;;;;;;;0.10;0.10;;;2.80;99.90;;;;;;5062417;28;20555;-81
2023/01/23 10:05:43;;;;;;;0.10;0.10;;;2.90;99.90;;;;;;5062620;28;20201;-82
2023/01/23 10:08:35;;;;;;;0.10;0.10;;;3.10;99.90;;;;;;5060411;28;20294;-81
2023/01/23 10:11:03;;;;;;;0.10;0.10;;;3.10;99.90;;;;;;5059780;28;20201;-82
2023/01/23 10:13:57;;;;;;;0.10;0.10;;;3.10;99.90;;;;;;5060553;28;20206;-81
2023/01/23 10:17:00;;;;;;;0.10;0.10;;;3.00;99.90;;;;;;5062265;28;20181;-82
2023/01/23 10:19:25;;;;;;;0.10;0.10;;;3.20;99.90;;;;;;5057698;28;20419;-82
2023/01/23 10:22:00;;;;;;;0.10;0.10;;;3.30;99.90;;;;;;5060035;28;20193;-82
2023/01/23 10:24:49;;;;;;;1.83;1.80;;;3.30;99.90;;;;;;5058630;28;20187;-83
2023/01/23 10:27:25;;;;;;;0.10;0.10;;;3.30;99.90;;;;;;5061939;28;20193;-82
2023/01/23 10:30:10;;;;;;;0.10;0.10;;;3.20;99.90;;;;;;5059842;28;20188;-81
2023/01/23 10:32:48;;;;;;;0.10;0.10;;;3.40;99.90;;;;;;5056272;28;20702;-82
2023/01/23 10:35:39;;;;;;;0.10;0.10;;;3.40;99.90;;;;;;5061263;28;20190;-82
2023/01/23 10:38:30;;;;;;;1.47;1.37;;;3.40;99.90;;;;;;5059524;28;20597;-83
2023/01/23 10:41:16;;;;;;;0.03;0.03;;;3.40;99.90;;;;;;5056277;28;20177;-82
2023/01/23 10:43:49;;;;;;;0.10;0.10;;;3.40;99.90;;;;;;5058249;28;20184;-81
2023/01/23 10:46:20;;;;;;;0.10;0.10;;;3.40;99.90;;;;;;5060285;28;20759;-81
2023/01/23 10:48:53;;;;;;;0.10;0.10;;;3.50;99.90;;;;;;5058411;28;20207;-81
2023/01/23 10:51:25;;;;;;;0.10;0.10;;;3.60;99.90;;;;;;5059790;28;20190;-81
2023/01/23 10:54:01;;;;;;;0.00;0.00;;;3.90;99.90;;;;;;5061251;28;20681;-81
2023/01/23 10:56:27;;;;;;;0.10;0.10;;;4.20;99.90;;;;;;5061715;28;20188;-83
2023/01/23 10:58:55;;;;;;;0.10;0.10;;;4.00;99.90;;;;;;5061884;28;20588;-82
2023/01/23 11:01:34;;;;;;;0.10;0.10;;;4.10;99.90;;;;;;5061727;28;20183;-82
2023/01/23 11:04:22;;;;;;;0.10;0.10;;;3.70;99.90;;;;;;5062096;28;20200;-82
2023/01/23 11:07:10;;;;;;;0.10;0.10;;;3.90;99.90;;;;;;5065545;28;20636;-82
2023/01/23 11:10:10;;;;;;;0.10;0.10;;;3.80;99.90;;;;;;5062652;28;20709;-81
2023/01/23 11:12:47;;;;;;;0.10;0.10;;;3.80;99.90;;;;;;5043114;28;20279;-82
2023/01/23 11:15:23;;;;;;;0.10;0.10;;;3.70;99.90;;;;;;5062836;28;20174;-81
2023/01/23 11:17:50;;;;;;;0.10;0.10;;;3.80;99.90;;;;;;5059331;28;20231;-83
2023/01/23 11:20:36;;;;;;;0.00;0.00;;;3.90;99.90;;;;;;5056369;28;20200;-83
2023/01/23 11:23:16;;;;;;;0.10;0.10;;;3.90;99.90;;;;;;5057543;28;20192;-81
2023/01/23 11:25:47;;;;;;;0.10;0.10;;;3.90;99.90;;;;;;5056651;28;20246;-82
2023/01/23 11:28:19;;;;;;;0.10;0.10;;;3.70;99.90;;;;;;5054858;28;20219;-83
2023/01/23 11:30:48;;;;;;;0.10;0.10;;;3.60;99.90;;;;;;5061098;28;20187;-82
2023/01/23 11:33:36;;;;;;;0.10;0.10;;;3.80;99.90;;;;;;5061876;28;20280;-83
2023/01/23 11:36:12;;;;;;;0.00;0.00;;;3.70;99.90;;;;;;5062528;28;21061;-81
2023/01/23 11:38:52;;;;;;;0.10;0.10;;;3.70;99.90;;;;;;5064000;28;20229;-83
2023/01/23 11:41:18;;;;;;;0.10;0.10;;;3.80;99.90;;;;;;5060802;28;20179;-82
2023/01/23 11:43:43;;;;;;;0.10;0.10;;;3.80;99.90;;;;;;5058640;28;20246;-83
2023/01/23 11:46:29;;;;;;;0.00;0.00;;;3.80;99.90;;;;;;5063821;28;20959;-82
2023/01/23 11:49:47;;;;;;;0.00;0.00;;;3.70;99.90;;;;;;5062903;28;20206;-83
2023/01/23 11:52:35;;;;;;;0.00;0.00;;;3.80;99.90;;;;;;5063560;28;20234;-81
2023/01/23 11:55:37;;;;;;;0.10;0.10;;;3.90;99.90;;;;;;5076194;28;20657;-83
2023/01/23 11:58:23;;;;;;;0.10;0.10;;;4.00;99.90;;;;;;5062627;28;20241;-83
2023/01/23 12:01:03;;;;;;;0.10;0.10;;;4.00;99.90;;;;;;5056847;28;20233;-82
2023/01/23 12:04:01;;;;;;;0.10;0.10;;;4.20;99.90;;;;;;5057251;28;20610;-82
2023/01/23 12:06:32;;;;;;;0.00;0.00;;;3.90;99.90;;;;;;5057529;28;20193;-83
2023/01/23 12:09:04;;;;;;;0.00;0.00;;;4.00;99.90;;;;;;5060375;28;20247;-81
2023/01/23 12:11:45;;;;;;;0.10;0.10;;;4.00;99.90;;;;;;5059454;28;20182;-82
2023/01/23 12:14:13;;;;;;;0.00;0.00;;;4.00;99.90;;;;;;5060775;28;20210;-82
2023/01/23 12:17:07;;;;;;;0.10;0.10;;;4.00;99.90;;;;;;5061809;28;20266;-84
2023/01/23 12:20:05;;;;;;;0.10;0.10;;;3.90;99.90;;;;;;5062251;28;20203;-85
2023/01/23 12:22:58;;;;;;;0.10;0.10;;;3.80;99.90;;;;;;5061155;28;20185;-85
2023/01/23 12:25:39;;;;;;;0.03;0.03;;;3.90;99.90;;;;;;5063718;28;20195;-84
2023/01/23 12:28:24;;;;;;;0.10;0.10;;;4.20;99.90;;;;;;5062890;28;20211;-84
2023/01/23 12:31:12;;;;;;;0.00;0.00;;;4.50;99.90;;;;;;5064083;28;20261;-87
2023/01/23 12:33:47;;;;;;;0.03;0.03;;;4.50;99.90;;;;;;5063358;28;20688;-87
2023/01/23 12:36:18;;;;;;;0.10;0.10;;;4.70;99.90;;;;;;5063191;28;20186;-85
2023/01/23 12:39:03;;;;;;;0.00;0.00;;;5.00;99.90;;;;;;5060222;28;20664;-83
2023/01/23 12:41:49;;;;;;;0.10;0.10;;;5.00;99.90;;;;;;5058399;28;20214;-82
2023/01/23 12:44:21;;;;;;;0.00;0.00;;;5.10;99.90;;;;;;5059023;28;20250;-80
2023/01/23 12:46:57;;;;;;;0.10;0.10;;;5.10;99.90;;;;;;5056742;28;20269;-81
2023/01/23 12:49:42;;;;;;;0.10;0.10;;;4.90;99.90;;;;;;5059144;28;20277;-81
2023/01/23 12:52:31;;;;;;;0.10;0.10;;;4.80;99.90;;;;;;5062071;28;20204;-81
2023/01/23 12:55:06;;;;;;;0.10;0.10;;;4.90;99.90;;;;;;5059968;28;20659;-82
2023/01/23 12:57:39;;;;;;;0.10;0.10;;;5.00;99.90;;;;;;5060879;28;20323;-82
2023/01/23 13:00:28;;;;;;;0.10;0.10;;;5.10;99.90;;;;;;5059258;28;20275;-81
2023/01/23 13:03:22;;;;;;;0.00;0.00;;;4.70;99.90;;;;;;5060599;28;20276;-81
2023/01/23 13:05:58;;;;;;;0.10;0.10;;;4.50;99.90;;;;;;5058334;28;20723;-82
2023/01/23 13:08:38;;;;;;;0.10;0.10;;;4.40;99.90;;;;;;5060417;28;20215;-81
2023/01/23 13:13:50;;;;;;;0.10;0.10;;;4.90;99.90;;;;;;5060672;28;20592;-81
2023/01/23 13:16:18;;;;;;;0.10;0.10;;;5.30;99.90;;;;;;5059418;28;20185;-81
2023/01/23 13:22:25;;;;;;;0.00;0.00;;;5.00;99.90;;;;;;5057649;28;20223;-83
2023/01/23 13:25:11;;;;;;;0.10;0.10;;;5.20;99.90;;;;;;5058163;28;20200;-83
2023/01/23 13:27:50;;;;;;;0.10;0.10;;;5.60;99.90;;;;;;5047525;28;20552;-83